Time;durP1;ratioP1;P1;durP2;ratioP2;P2;SDS_P1;SDS_P2;PMS_P1;PMS_P2;Temp;Humidity;BMP_temperature;BMP_pressure;BME280_temperature;BME280_humidity;BME280_pressure;Samples;Min_cycle;Max_cycle;Signal;HPM_P1;HPM_P2
2024/03/12 00:01:48;;;;;;;18.80;11.20;;;;;;;0.28;48.57;100545.17;105465;1255;71819;-74
2024/03/12 00:04:16;;;;;;;20.20;11.50;;;;;;;0.28;48.71;100540.84;105550;1256;70443;-72
2024/03/12 00:06:44;;;;;;;20.00;10.80;;;;;;;0.26;48.76;100532.91;105553;1258;73105;-72
2024/03/12 00:09:12;;;;;;;18.50;9.80;;;;;;;0.26;48.79;100533.60;105515;1259;60435;-72
2024/03/12 00:11:42;;;;;;;20.40;11.10;;;;;;;0.26;48.88;100528.75;105280;1262;60355;-73
2024/03/12 00:14:10;;;;;;;18.30;11.50;;;;;;;0.25;48.83;100526.16;105402;1256;72620;-72
2024/03/12 00:16:40;;;;;;;21.50;10.30;;;;;;;0.25;48.78;100526.70;105431;1260;70143;-72
2024/03/12 00:19:09;;;;;;;21.10;10.70;;;;;;;0.25;48.92;100524.42;105519;1259;71738;-71
2024/03/12 00:21:37;;;;;;;20.60;11.10;;;;;;;0.24;48.97;100523.94;105689;1256;60337;-71
2024/03/12 00:24:05;;;;;;;20.00;10.40;;;;;;;0.25;48.92;100525.81;105546;1256;60485;-70
2024/03/12 00:26:32;;;;;;;17.30;9.90;;;;;;;0.25;48.91;100524.77;105503;1257;72563;-72
2024/03/12 00:29:00;;;;;;;20.70;11.80;;;;;;;0.25;48.86;100527.91;105461;1257;70068;-73
2024/03/12 00:31:28;;;;;;;25.00;11.80;;;;;;;0.26;48.81;100527.69;105345;1256;73008;-72
2024/03/12 00:34:00;;;;;;;19.10;10.70;;;;;;;0.28;48.75;100521.98;105409;1260;60520;-72
2024/03/12 00:36:28;;;;;;;20.60;10.90;;;;;;;0.29;48.74;100518.99;105683;1256;60505;-72
2024/03/12 00:38:57;;;;;;;18.10;10.90;;;;;;;0.28;48.92;100520.60;105291;1262;75183;-71
2024/03/12 00:41:25;;;;;;;22.20;10.60;;;;;;;0.27;48.81;100518.89;105358;1257;68958;-73
2024/03/12 00:43:54;;;;;;;16.10;10.60;;;;;;;0.27;48.91;100521.16;105383;1259;70833;-71
2024/03/12 00:46:22;;;;;;;19.20;10.70;;;;;;;0.26;48.76;100519.49;105247;1256;60533;-70
2024/03/12 00:48:50;;;;;;;18.00;10.30;;;;;;;0.26;48.91;100517.94;105443;1256;60542;-72
2024/03/12 00:51:18;;;;;;;19.20;11.00;;;;;;;0.24;49.14;100512.80;105312;1259;74334;-72
2024/03/12 00:53:45;;;;;;;21.80;11.90;;;;;;;0.22;49.21;100512.38;105235;1257;70300;-74
2024/03/12 00:56:15;;;;;;;17.80;10.50;;;;;;;0.21;49.32;100509.50;105519;1257;72722;-73
2024/03/12 00:58:43;;;;;;;19.50;10.70;;;;;;;0.20;49.33;100509.17;105401;1257;60479;-72
2024/03/12 01:01:14;;;;;;;22.80;10.80;;;;;;;0.19;49.52;100504.70;105448;1256;60520;-73
2024/03/12 01:03:43;;;;;;;18.90;10.00;;;;;;;0.18;49.34;100502.46;105532;1257;72965;-73
2024/03/12 01:06:11;;;;;;;24.30;12.10;;;;;;;0.18;49.68;100499.17;105635;1256;70984;-72
2024/03/12 01:08:42;;;;;;;23.30;11.60;;;;;;;0.16;49.50;100494.38;105740;1260;71429;-74
2024/03/12 01:11:12;;;;;;;21.50;11.40;;;;;;;0.15;49.61;100494.46;105605;1257;60574;-72
2024/03/12 01:13:40;;;;;;;22.60;11.90;;;;;;;0.15;49.68;100491.83;105590;1256;60397;-72
2024/03/12 01:16:07;;;;;;;22.40;11.20;;;;;;;0.16;49.50;100490.02;105580;1259;73876;-72
2024/03/12 01:18:35;;;;;;;21.40;10.60;;;;;;;0.17;49.60;100491.02;105459;1259;70894;-72
2024/03/12 01:21:03;;;;;;;18.10;10.30;;;;;;;0.18;49.69;100493.05;105382;1257;72751;-70
2024/03/12 01:23:31;;;;;;;19.50;11.40;;;;;;;0.19;49.73;100486.61;105361;1260;60598;-71
2024/03/12 01:25:58;;;;;;;20.80;12.10;;;;;;;0.20;49.78;100490.38;105573;1256;60416;-74
2024/03/12 01:28:26;;;;;;;23.90;12.60;;;;;;;0.22;49.78;100488.73;105644;1258;73801;-73
2024/03/12 01:30:53;;;;;;;19.90;12.40;;;;;;;0.22;49.80;100490.80;105530;1257;69194;-74
2024/03/12 01:33:21;;;;;;;22.00;11.90;;;;;;;0.21;49.80;100485.10;105439;1256;72499;-74
2024/03/12 01:35:49;;;;;;;26.90;12.10;;;;;;;0.18;49.90;100483.70;105532;1259;60457;-71
2024/03/12 01:38:16;;;;;;;23.80;13.00;;;;;;;0.16;50.09;100482.73;105323;1256;60526;-71
2024/03/12 01:40:44;;;;;;;24.50;12.40;;;;;;;0.15;49.97;100478.05;105387;1259;72583;-71
2024/03/12 01:43:12;;;;;;;23.60;11.90;;;;;;;0.15;50.08;100478.58;105455;1256;70191;-72
2024/03/12 01:45:42;;;;;;;21.40;11.20;;;;;;;0.15;50.17;100476.30;105342;1256;72464;-72
2024/03/12 01:48:10;;;;;;;17.70;11.00;;;;;;;0.16;50.02;100478.55;105452;1256;60529;-73
2024/03/12 01:50:39;;;;;;;23.10;11.70;;;;;;;0.15;50.21;100475.10;105387;1261;60254;-71
2024/03/12 01:53:07;;;;;;;21.40;11.90;;;;;;;0.15;50.15;100478.08;105348;1256;73784;-72
2024/03/12 01:55:42;;;;;;;22.70;12.00;;;;;;;0.17;50.21;100477.10;105411;1259;70147;-75
2024/03/12 01:58:17;;;;;;;19.80;11.20;;;;;;;0.17;50.24;100475.20;105368;1256;72668;-72
2024/03/12 02:00:45;;;;;;;18.10;11.20;;;;;;;0.15;50.29;100474.27;105380;1260;60560;-73
2024/03/12 02:03:15;;;;;;;22.10;12.50;;;;;;;0.13;50.38;100470.52;105521;1261;61053;-71
2024/03/12 02:05:45;;;;;;;21.20;11.60;;;;;;;0.12;50.48;100471.84;105506;1261;72598;-73
2024/03/12 02:08:14;;;;;;;20.20;12.40;;;;;;;0.10;50.46;100471.21;105531;1259;69164;-73
2024/03/12 02:10:41;;;;;;;20.10;11.60;;;;;;;0.09;50.53;100468.33;105468;1259;71470;-74
2024/03/12 02:13:09;;;;;;;21.50;11.70;;;;;;;0.09;50.51;100468.33;105439;1256;60641;-73
2024/03/12 02:15:37;;;;;;;24.00;12.20;;;;;;;0.09;50.57;100468.67;105281;1261;61097;-73
2024/03/12 02:18:08;;;;;;;20.10;11.50;;;;;;;0.09;50.67;100466.76;105444;1259;75881;-72
2024/03/12 02:20:38;;;;;;;19.90;10.50;;;;;;;0.08;50.73;100464.34;105290;1256;68839;-72
2024/03/12 02:23:06;;;;;;;23.40;12.00;;;;;;;0.06;50.82;100459.05;105428;1256;70436;-74
2024/03/12 02:25:33;;;;;;;21.70;11.40;;;;;;;0.06;50.75;100459.06;105608;1256;60557;-72
2024/03/12 02:28:02;;;;;;;23.40;13.10;;;;;;;0.08;50.85;100459.32;105431;1256;60592;-73
2024/03/12 02:30:30;;;;;;;25.60;11.50;;;;;;;0.09;50.94;100459.80;105531;1256;72568;-72
2024/03/12 02:32:58;;;;;;;23.50;12.60;;;;;;;0.08;50.92;100457.02;105420;1257;70227;-72
2024/03/12 02:35:26;;;;;;;23.10;11.60;;;;;;;0.09;50.86;100455.40;105352;1257;72749;-72
2024/03/12 02:37:54;;;;;;;19.40;11.90;;;;;;;0.10;50.85;100459.35;105308;1261;60504;-71
2024/03/12 02:40:22;;;;;;;23.20;13.50;;;;;;;0.11;50.97;100453.92;105470;1257;60530;-70
2024/03/12 02:42:50;;;;;;;23.20;11.20;;;;;;;0.09;51.13;100450.38;105502;1256;72563;-73
2024/03/12 02:45:20;;;;;;;21.90;12.40;;;;;;;0.08;51.08;100454.77;105317;1260;68722;-73
2024/03/12 02:47:49;;;;;;;19.20;11.00;;;;;;;0.08;51.07;100451.11;105413;1256;72766;-74
2024/03/12 02:50:18;;;;;;;23.60;11.90;;;;;;;0.09;51.16;100448.44;105463;1258;60492;-71
2024/03/12 02:52:46;;;;;;;21.60;11.50;;;;;;;0.10;51.22;100444.58;105779;1257;60467;-75
2024/03/12 02:55:14;;;;;;;20.90;11.60;;;;;;;0.09;51.10;100445.15;105781;1257;72790;-72
2024/03/12 02:57:41;;;;;;;21.20;12.80;;;;;;;0.09;51.08;100446.73;105691;1260;71581;-71
2024/03/12 03:00:14;;;;;;;23.40;12.60;;;;;;;0.07;51.17;100441.60;105436;1256;72681;-72
2024/03/12 03:02:43;;;;;;;25.80;13.20;;;;;;;0.07;51.30;100438.62;105352;1257;60484;-70
2024/03/12 03:05:12;;;;;;;22.40;11.90;;;;;;;0.08;51.15;100440.83;105381;1261;60435;-72
2024/03/12 03:07:41;;;;;;;23.20;13.20;;;;;;;0.11;51.20;100442.08;105525;1259;75807;-72
2024/03/12 03:10:12;;;;;;;24.50;12.00;;;;;;;0.12;51.26;100440.42;105411;1257;70649;-71
2024/03/12 03:12:41;;;;;;;22.70;11.20;;;;;;;0.14;51.47;100439.31;105295;1262;71201;-71
2024/03/12 03:15:11;;;;;;;26.20;12.70;;;;;;;0.14;51.53;100440.19;105483;1261;60524;-71
2024/03/12 03:17:45;;;;;;;23.50;12.70;;;;;;;0.15;51.42;100434.89;105567;1259;60460;-72
2024/03/12 03:20:16;;;;;;;21.60;12.00;;;;;;;0.16;51.41;100438.98;105421;1257;74039;-70
2024/03/12 03:22:47;;;;;;;22.80;12.90;;;;;;;0.18;51.55;100438.73;105291;1259;71080;-72
2024/03/12 03:25:14;;;;;;;24.40;12.80;;;;;;;0.19;51.50;100441.80;105757;1257;72845;-70
2024/03/12 03:27:43;;;;;;;23.70;12.00;;;;;;;0.21;51.58;100434.92;105674;1259;60566;-72
2024/03/12 03:30:12;;;;;;;22.20;12.20;;;;;;;0.21;51.49;100435.45;105375;1259;60430;-72
2024/03/12 03:32:40;;;;;;;22.90;12.60;;;;;;;0.20;51.53;100429.77;105352;1257;71815;-70
2024/03/12 03:35:08;;;;;;;22.00;11.80;;;;;;;0.18;51.65;100426.50;105414;1259;68731;-71
2024/03/12 03:37:36;;;;;;;21.30;12.20;;;;;;;0.18;51.59;100428.27;105455;1254;72766;-71
2024/03/12 03:40:04;;;;;;;23.40;12.80;;;;;;;0.18;51.60;100424.23;105359;1256;60521;-72
2024/03/12 03:42:32;;;;;;;26.40;12.00;;;;;;;0.20;51.47;100428.54;105663;1262;60349;-72
2024/03/12 03:45:00;;;;;;;25.50;11.90;;;;;;;0.21;51.62;100424.46;105754;1256;72981;-70
2024/03/12 03:47:33;;;;;;;17.80;10.70;;;;;;;0.23;51.59;100425.92;105613;1256;70686;-73
2024/03/12 03:50:03;;;;;;;22.80;12.40;;;;;;;0.25;51.43;100424.42;105408;1256;72597;-74
2024/03/12 03:52:30;;;;;;;18.30;11.30;;;;;;;0.25;51.63;100423.02;105956;1262;60854;-70
2024/03/12 03:54:58;;;;;;;22.00;11.70;;;;;;;0.25;51.75;100423.01;106227;1257;60520;-72
2024/03/12 03:57:25;;;;;;;19.20;11.50;;;;;;;0.27;51.70;100421.52;105962;1255;73853;-72
2024/03/12 03:59:53;;;;;;;21.20;12.00;;;;;;;0.28;51.79;100417.78;105981;1256;70307;-71
2024/03/12 04:02:21;;;;;;;19.50;11.40;;;;;;;0.30;51.87;100416.65;105945;1259;71157;-73
2024/03/12 04:04:49;;;;;;;18.80;11.10;;;;;;;0.30;51.76;100416.46;106135;1262;60547;-71
2024/03/12 04:07:19;;;;;;;19.40;11.10;;;;;;;0.30;51.77;100414.17;105587;1256;60576;-71
2024/03/12 04:09:47;;;;;;;18.20;11.00;;;;;;;0.31;51.71;100418.69;106288;1259;72671;-71
2024/03/12 04:12:15;;;;;;;19.60;11.60;;;;;;;0.33;51.75;100416.33;105689;1259;69069;-70
2024/03/12 04:14:42;;;;;;;22.90;11.50;;;;;;;0.33;51.87;100415.41;105499;1257;72662;-72
2024/03/12 04:17:10;;;;;;;19.70;11.30;;;;;;;0.31;51.78;100414.34;105536;1257;60467;-72
2024/03/12 04:19:37;;;;;;;18.40;11.80;;;;;;;0.30;51.71;100414.20;105532;1255;60407;-72
2024/03/12 04:22:05;;;;;;;17.90;11.00;;;;;;;0.31;51.75;100412.23;105451;1261;74151;-72
2024/03/12 04:24:33;;;;;;;21.00;11.70;;;;;;;0.30;51.96;100413.66;105507;1260;68857;-73
2024/03/12 04:27:01;;;;;;;17.80;11.00;;;;;;;0.28;51.82;100411.14;105392;1256;71414;-73
2024/03/12 04:29:29;;;;;;;19.80;11.20;;;;;;;0.27;51.95;100412.46;105556;1261;60524;-73
2024/03/12 04:31:56;;;;;;;21.10;11.70;;;;;;;0.25;52.00;100408.58;105372;1257;60536;-72
2024/03/12 04:34:24;;;;;;;21.60;11.20;;;;;;;0.24;52.07;100406.70;105514;1261;74256;-71
2024/03/12 04:36:51;;;;;;;21.70;12.10;;;;;;;0.25;52.10;100407.55;105536;1255;70338;-72
2024/03/12 04:39:31;;;;;;;16.10;10.30;;;;;;;0.25;52.27;100404.21;105422;1257;74848;-71
2024/03/12 04:42:02;;;;;;;21.20;11.50;;;;;;;0.26;52.20;100404.17;105407;1262;60458;-69
2024/03/12 04:44:29;;;;;;;22.20;11.70;;;;;;;0.27;52.29;100404.77;105399;1257;60460;-71
2024/03/12 04:46:57;;;;;;;20.40;11.10;;;;;;;0.28;52.17;100405.23;105409;1255;76362;-72
2024/03/12 04:49:25;;;;;;;23.80;11.50;;;;;;;0.29;52.36;100401.68;105494;1257;70312;-70
2024/03/12 04:51:53;;;;;;;19.60;10.30;;;;;;;0.31;52.31;100399.52;105428;1257;71451;-71
2024/03/12 04:54:21;;;;;;;23.10;11.00;;;;;;;0.32;52.25;100403.42;105399;1258;60844;-70
2024/03/12 04:56:51;;;;;;;18.20;11.00;;;;;;;0.35;52.24;100399.81;105459;1259;60501;-71
2024/03/12 04:59:19;;;;;;;21.90;13.00;;;;;;;0.38;52.24;100402.95;105447;1258;73109;-71
2024/03/12 05:01:48;;;;;;;18.60;11.40;;;;;;;0.39;52.48;100406.52;105426;1256;69959;-72
2024/03/12 05:04:16;;;;;;;19.70;11.60;;;;;;;0.41;52.35;100406.80;105309;1262;70434;-72
2024/03/12 05:06:50;;;;;;;17.90;12.00;;;;;;;0.43;52.59;100411.41;105446;1257;60417;-72
2024/03/12 05:09:18;;;;;;;25.80;12.10;;;;;;;0.44;52.58;100409.21;105323;1260;60505;-71
2024/03/12 05:11:46;;;;;;;19.20;12.00;;;;;;;0.48;52.67;100410.07;105387;1257;72562;-70
2024/03/12 05:14:13;;;;;;;19.80;11.50;;;;;;;0.48;52.66;100410.59;105319;1256;68723;-72
2024/03/12 05:16:41;;;;;;;19.10;11.60;;;;;;;0.45;52.81;100411.30;105451;1259;72680;-72
2024/03/12 05:19:10;;;;;;;18.80;12.00;;;;;;;0.45;52.74;100412.16;105394;1256;60466;-72
2024/03/12 05:21:39;;;;;;;20.70;11.70;;;;;;;0.47;52.88;100415.48;105773;1258;62221;-71
2024/03/12 05:24:07;;;;;;;18.70;11.40;;;;;;;0.51;52.96;100418.95;105558;1258;74008;-71
2024/03/12 05:26:43;;;;;;;21.30;11.70;;;;;;;0.54;52.87;100419.62;105515;1261;69971;-72
2024/03/12 05:29:12;;;;;;;22.40;12.90;;;;;;;0.58;53.14;100421.66;105606;1257;71592;-71
2024/03/12 05:31:40;;;;;;;20.70;12.50;;;;;;;0.59;52.93;100422.30;105662;1259;60520;-71
2024/03/12 05:34:18;;;;;;;21.20;12.20;;;;;;;0.61;53.09;100421.89;105528;1261;60341;-69
2024/03/12 05:36:51;;;;;;;22.90;12.80;;;;;;;0.64;53.00;100423.63;105381;1257;74303;-73
2024/03/12 05:50:41;;;;;;;23.80;12.60;;;;;;;0.92;52.65;100431.45;105281;1262;73832;-71
2024/03/12 05:53:08;;;;;;;22.50;14.00;;;;;;;0.95;52.72;100424.95;105300;1260;68836;-74
2024/03/12 05:55:36;;;;;;;22.90;13.80;;;;;;;0.99;52.69;100433.47;105620;1257;72023;-72
2024/03/12 05:58:04;;;;;;;25.00;13.30;;;;;;;1.03;52.68;100428.87;105197;1259;60549;-71
2024/03/12 06:00:32;;;;;;;26.30;14.10;;;;;;;1.07;52.62;100429.15;105374;1256;60361;-71
2024/03/12 06:03:00;;;;;;;22.20;12.30;;;;;;;1.12;52.52;100429.00;105561;1257;73872;-71
2024/03/12 06:05:27;;;;;;;20.10;13.20;;;;;;;1.18;52.53;100426.38;105859;1259;68870;-71
2024/03/12 06:07:55;;;;;;;26.40;13.90;;;;;;;1.23;52.45;100422.64;105354;1257;72452;-71
2024/03/12 06:10:22;;;;;;;21.70;12.90;;;;;;;1.28;52.35;100419.33;105630;1260;59669;-72
2024/03/12 06:12:50;;;;;;;24.20;13.10;;;;;;;1.32;52.32;100419.65;105491;1256;60663;-68
2024/03/12 06:15:19;;;;;;;24.90;14.30;;;;;;;1.35;52.29;100427.33;105593;1258;73827;-72
2024/03/12 06:17:46;;;;;;;25.40;14.90;;;;;;;1.37;52.22;100421.95;105799;1257;69396;-72
2024/03/12 06:20:14;;;;;;;21.20;13.90;;;;;;;1.37;52.36;100427.31;105448;1256;71389;-71
2024/03/12 06:22:44;;;;;;;22.90;12.40;;;;;;;1.40;52.40;100421.24;105335;1257;60551;-70
2024/03/12 06:25:12;;;;;;;23.70;13.80;;;;;;;1.41;52.42;100421.70;105650;1256;60617;-70
2024/03/12 06:27:41;;;;;;;24.60;14.50;;;;;;;1.41;52.55;100422.80;105265;1259;73678;-72
2024/03/12 06:30:11;;;;;;;30.60;14.00;;;;;;;1.41;52.51;100420.18;105634;1257;70575;-70
2024/03/12 06:32:38;;;;;;;22.70;13.20;;;;;;;1.43;52.51;100417.21;105324;1256;73634;-73
2024/03/12 06:35:07;;;;;;;21.10;13.50;;;;;;;1.49;52.46;100411.81;105630;1262;60309;-72
2024/03/12 06:37:35;;;;;;;26.00;14.50;;;;;;;1.54;52.61;100414.28;105694;1257;60401;-72
2024/03/12 06:40:04;;;;;;;28.20;14.30;;;;;;;1.59;52.56;100410.52;105791;1259;73918;-72
2024/03/12 06:42:32;;;;;;;25.40;15.20;;;;;;;1.64;52.52;100410.69;105493;1259;69319;-72
2024/03/12 06:45:02;;;;;;;23.50;13.60;;;;;;;1.68;52.50;100412.04;105350;1257;72723;-72
2024/03/12 06:47:36;;;;;;;26.00;14.90;;;;;;;1.69;52.62;100410.02;105354;1257;60539;-73
2024/03/12 06:50:08;;;;;;;21.90;14.10;;;;;;;1.70;52.70;100412.94;105311;1257;61356;-72
2024/03/12 06:52:36;;;;;;;25.60;14.70;;;;;;;1.73;52.81;100410.33;105671;1255;74178;-73
2024/03/12 06:55:04;;;;;;;28.00;15.00;;;;;;;1.75;52.91;100414.72;105673;1255;67991;-72
2024/03/12 06:57:34;;;;;;;23.10;14.20;;;;;;;1.79;52.94;100414.54;105576;1257;74939;-73
2024/03/12 07:00:09;;;;;;;24.50;14.20;;;;;;;1.81;53.13;100418.77;105715;1259;60442;-72
2024/03/12 07:02:38;;;;;;;23.20;14.20;;;;;;;1.80;53.23;100416.92;105593;1255;61027;-72
2024/03/12 07:05:09;;;;;;;24.70;15.20;;;;;;;1.83;53.25;100422.67;105684;1259;73300;-72
2024/03/12 07:07:43;;;;;;;26.90;16.30;;;;;;;1.84;53.26;100421.32;105721;1259;67997;-70
2024/03/12 07:10:11;;;;;;;24.90;14.90;;;;;;;1.86;53.43;100417.76;105654;1257;72156;-73
2024/03/12 07:12:39;;;;;;;25.20;15.80;;;;;;;1.85;53.58;100422.35;105715;1257;60457;-73
2024/03/12 07:15:07;;;;;;;27.50;17.10;;;;;;;1.82;53.66;100420.93;105598;1256;60429;-73
2024/03/12 07:17:35;;;;;;;24.90;15.40;;;;;;;1.79;53.95;100423.23;105654;1255;74700;-73
2024/03/12 07:20:10;;;;;;;25.10;14.50;;;;;;;1.79;54.00;100425.53;105591;1256;72593;-74
2024/03/12 07:22:42;;;;;;;25.50;16.10;;;;;;;1.80;54.10;100427.69;105583;1257;73130;-73
2024/03/12 07:25:13;;;;;;;27.10;16.60;;;;;;;1.82;54.16;100421.15;105643;1257;61277;-74
2024/03/12 07:27:41;;;;;;;28.30;15.70;;;;;;;1.86;53.99;100424.91;105611;1261;60445;-73
2024/03/12 07:30:10;;;;;;;25.20;15.40;;;;;;;1.92;54.12;100425.05;105684;1260;73944;-73
2024/03/12 07:32:38;;;;;;;28.40;14.90;;;;;;;1.98;54.14;100425.20;105540;1256;69966;-73
2024/03/12 07:35:06;;;;;;;27.40;15.30;;;;;;;2.04;54.15;100422.23;105582;1259;72013;-73
2024/03/12 07:37:39;;;;;;;26.90;15.20;;;;;;;2.07;54.03;100418.70;105799;1259;60457;-73
2024/03/12 07:40:11;;;;;;;32.00;17.80;;;;;;;2.11;54.15;100422.08;105795;1262;60428;-72
2024/03/12 07:42:41;;;;;;;25.90;15.40;;;;;;;2.14;54.22;100416.88;105632;1257;76088;-72
2024/03/12 07:45:10;;;;;;;26.90;15.90;;;;;;;2.18;54.21;100419.23;105665;1262;70641;-72
2024/03/12 07:47:40;;;;;;;26.30;17.30;;;;;;;2.18;54.38;100420.96;105517;1261;73185;-72
2024/03/12 07:50:11;;;;;;;24.70;15.40;;;;;;;2.18;54.45;100421.48;106143;1256;60361;-73
2024/03/12 07:52:38;;;;;;;32.60;17.80;;;;;;;2.18;54.52;100425.39;106755;1257;60446;-73
2024/03/12 07:55:09;;;;;;;24.50;16.00;;;;;;;2.16;54.59;100421.45;105906;1257;74942;-73
2024/03/12 07:57:37;;;;;;;28.50;16.00;;;;;;;2.16;54.72;100423.54;105771;1256;72584;-73
2024/03/12 08:00:14;;;;;;;26.10;16.20;;;;;;;2.18;54.72;100423.41;105722;1262;71496;-72
2024/03/12 08:02:42;;;;;;;28.50;16.00;;;;;;;2.22;54.77;100418.61;105714;1261;61594;-72
2024/03/12 08:05:10;;;;;;;32.00;17.60;;;;;;;2.26;54.82;100417.33;105247;1263;245873;-72
2024/03/12 08:08:50;;;;;;;29.00;17.00;;;;;;;2.33;54.86;100420.52;102619;1292;601053;-71
2024/03/12 08:11:19;;;;;;;34.40;19.80;;;;;;;2.35;54.85;100424.75;104943;1272;59599;-70
2024/03/12 08:13:48;;;;;;;26.90;16.30;;;;;;;2.38;54.70;100429.10;104652;1266;62041;-70
2024/03/12 08:16:15;;;;;;;27.60;18.90;;;;;;;2.40;54.85;100428.34;104748;1271;73895;-70
2024/03/12 08:18:43;;;;;;;29.70;18.60;;;;;;;2.39;54.87;100428.35;104997;1272;69961;-71
2024/03/12 08:21:11;;;;;;;30.40;18.60;;;;;;;2.41;54.86;100425.66;105111;1270;74927;-73
2024/03/12 08:23:39;;;;;;;30.50;18.20;;;;;;;2.42;55.00;100423.49;104718;1264;203280;-73
2024/03/12 08:29:47;;;;;;;32.00;17.80;;;;;;;2.61;54.84;100421.20;105124;1269;74382;-73
2024/03/12 08:32:14;;;;;;;29.80;17.50;;;;;;;2.70;54.67;100428.31;104983;1269;72454;-73
2024/03/12 08:34:42;;;;;;;32.30;18.90;;;;;;;2.73;54.76;100426.51;105120;1269;74234;-72
2024/03/12 08:37:11;;;;;;;28.90;18.20;;;;;;;2.73;54.68;100420.73;105155;1264;60169;-72
2024/03/12 08:39:40;;;;;;;31.20;18.70;;;;;;;2.73;54.68;100420.05;105226;1263;62313;-74
2024/03/12 08:42:09;;;;;;;32.80;18.90;;;;;;;2.73;54.81;100422.98;105033;1271;75140;-71
2024/03/12 08:44:37;;;;;;;30.90;18.90;;;;;;;2.76;54.68;100420.02;105380;1268;68065;-72
2024/03/12 08:47:05;;;;;;;30.20;18.90;;;;;;;2.81;54.91;100427.40;105298;1269;72023;-71
2024/03/12 08:49:33;;;;;;;32.50;19.50;;;;;;;2.88;54.75;100427.95;104894;1270;59693;-72
2024/03/12 08:52:03;;;;;;;33.30;19.10;;;;;;;2.93;54.91;100433.56;105813;1259;59581;-71
2024/03/12 08:54:31;;;;;;;30.00;20.00;;;;;;;2.91;54.90;100433.70;105744;1258;75681;-71
2024/03/12 08:57:00;;;;;;;32.90;19.70;;;;;;;2.89;55.19;100428.04;105932;1260;69343;-71
2024/03/12 08:59:29;;;;;;;31.00;19.80;;;;;;;2.86;55.45;100432.28;105746;1260;74864;-69
2024/03/12 09:02:00;;;;;;;32.50;20.10;;;;;;;2.79;55.90;100427.87;105583;1260;59890;-72
2024/03/12 09:04:30;;;;;;;32.30;20.00;;;;;;;2.70;56.24;100429.65;105817;1260;61679;-74
2024/03/12 09:06:58;;;;;;;31.70;20.50;;;;;;;2.65;56.44;100428.44;105871;1260;75213;-74
2024/03/12 09:09:26;;;;;;;27.90;19.90;;;;;;;2.66;56.66;100428.21;105850;1254;70209;-70
2024/03/12 09:11:55;;;;;;;35.40;21.30;;;;;;;2.68;56.66;100426.98;105780;1254;72857;-72
2024/03/12 09:14:24;;;;;;;30.90;19.70;;;;;;;2.72;56.83;100428.52;105731;1268;59642;-71
2024/03/12 09:16:52;;;;;;;27.80;19.20;;;;;;;2.73;57.00;100426.85;105731;1254;62337;-69
2024/03/12 09:19:24;;;;;;;30.70;19.50;;;;;;;2.74;57.18;100426.60;105606;1254;72543;-71
2024/03/12 09:21:53;;;;;;;31.10;19.60;;;;;;;2.78;57.33;100422.88;105917;1257;69249;-72
2024/03/12 09:24:22;;;;;;;27.90;19.20;;;;;;;2.81;57.59;100421.65;105742;1260;74724;-73
2024/03/12 09:26:51;;;;;;;31.70;20.70;;;;;;;2.86;57.60;100421.42;105566;1254;61333;-72
2024/03/12 09:29:20;;;;;;;34.20;21.00;;;;;;;2.93;57.68;100419.26;105679;1255;62565;-73
2024/03/12 09:31:48;;;;;;;30.60;20.00;;;;;;;2.97;57.83;100417.75;105791;1253;74138;-73
2024/03/12 09:34:16;;;;;;;31.10;21.20;;;;;;;3.03;57.99;100416.50;105816;1268;70551;-73
2024/03/12 09:36:44;;;;;;;27.00;19.20;;;;;;;3.08;58.27;100418.21;105893;1259;75141;-72
2024/03/12 09:39:12;;;;;;;30.00;19.70;;;;;;;3.08;58.35;100414.95;105942;1260;59701;-72
2024/03/12 09:41:42;;;;;;;30.20;21.00;;;;;;;3.10;58.42;100416.90;105945;1254;59660;-71
2024/03/12 09:44:11;;;;;;;31.10;19.10;;;;;;;3.14;58.56;100417.83;105708;1258;75371;-70
2024/03/12 09:46:39;;;;;;;26.20;20.10;;;;;;;3.18;58.57;100413.89;105731;1260;70274;-70
2024/03/12 09:49:07;;;;;;;33.30;21.10;;;;;;;3.21;58.64;100415.30;105587;1254;71497;-71
2024/03/12 09:51:36;;;;;;;26.20;19.20;;;;;;;3.22;58.88;100412.44;105600;1257;59608;-71
2024/03/12 09:54:04;;;;;;;28.40;19.30;;;;;;;3.23;59.06;100414.25;105832;1254;59727;-71
2024/03/12 09:56:33;;;;;;;26.70;19.20;;;;;;;3.24;59.42;100410.86;105806;1259;72479;-72
2024/03/12 09:59:01;;;;;;;32.20;20.70;;;;;;;3.26;59.51;100412.14;105740;1254;70539;-73
2024/03/12 10:01:28;;;;;;;28.20;19.90;;;;;;;3.28;60.10;100417.92;105813;1259;71676;-73
2024/03/12 10:03:57;;;;;;;28.40;18.90;;;;;;;3.23;60.39;100411.61;105746;1254;60009;-71
2024/03/12 10:06:25;;;;;;;28.20;18.90;;;;;;;3.17;60.75;100410.64;105949;1257;59569;-74
2024/03/12 10:08:59;;;;;;;31.30;21.00;;;;;;;3.13;61.15;100412.10;105782;1259;75309;-75
2024/03/12 10:11:27;;;;;;;31.30;20.60;;;;;;;3.11;61.77;100410.85;106037;1257;72886;-75
2024/03/12 10:14:04;;;;;;;28.60;19.40;;;;;;;3.10;62.15;100408.48;105748;1257;71528;-73
2024/03/12 10:16:34;;;;;;;27.50;19.80;;;;;;;3.07;62.47;100409.58;105842;1254;59944;-73
2024/03/12 10:19:14;;;;;;;33.70;21.00;;;;;;;3.01;63.47;100404.19;105785;1254;62189;-73
2024/03/12 10:21:44;;;;;;;32.00;20.90;;;;;;;2.94;63.56;100403.58;105905;1254;72803;-75
2024/03/12 10:24:14;;;;;;;30.40;19.90;;;;;;;2.92;64.20;100411.05;105841;1260;72628;-76
2024/03/12 10:26:42;;;;;;;31.00;21.00;;;;;;;2.87;64.55;100404.06;105844;1259;73607;-74
2024/03/12 10:29:18;;;;;;;30.10;22.30;;;;;;;2.80;65.21;100404.21;105714;1254;59761;-74
2024/03/12 10:31:46;;;;;;;35.20;22.00;;;;;;;2.73;65.45;100407.30;106486;1254;62728;-73
2024/03/12 10:34:19;;;;;;;34.10;21.80;;;;;;;2.68;65.94;100405.34;106891;1254;75391;-74
2024/03/12 10:36:49;;;;;;;33.70;22.20;;;;;;;2.61;66.54;100402.11;105827;1254;69446;-74
2024/03/12 10:39:28;;;;;;;37.50;21.80;;;;;;;2.62;66.89;100404.30;105903;1254;73807;-73
2024/03/12 10:41:58;;;;;;;34.40;22.10;;;;;;;2.68;67.48;100403.80;105828;1254;59415;-71
2024/03/12 10:44:28;;;;;;;34.10;22.70;;;;;;;2.62;68.56;100403.15;105959;1254;59634;-72
2024/03/12 10:46:59;;;;;;;32.30;23.50;;;;;;;2.50;68.87;100402.84;106020;1258;72251;-72
2024/03/12 10:49:27;;;;;;;34.80;22.70;;;;;;;2.41;69.17;100410.08;105505;1254;69801;-71
2024/03/12 10:51:55;;;;;;;34.90;23.30;;;;;;;2.32;70.50;100405.91;105741;1258;71813;-72
2024/03/12 10:54:23;;;;;;;33.70;23.10;;;;;;;2.20;70.37;100403.69;105647;1260;59742;-72
2024/03/12 10:56:51;;;;;;;37.40;22.60;;;;;;;2.09;71.27;100410.17;105744;1255;62041;-72
2024/03/12 10:59:19;;;;;;;30.50;21.20;;;;;;;1.99;72.38;100408.38;105404;1254;73024;-72
2024/03/12 11:01:47;;;;;;;32.90;19.70;;;;;;;1.96;72.71;100400.87;105344;1261;71460;-73
2024/03/12 11:04:16;;;;;;;31.60;19.10;;;;;;;1.97;73.28;100403.75;105797;1257;72987;-74
2024/03/12 11:06:43;;;;;;;28.10;19.90;;;;;;;1.91;73.70;100395.61;105815;1254;59830;-74
2024/03/12 11:09:11;;;;;;;31.90;20.30;;;;;;;1.83;73.89;100395.59;106226;1254;59887;-73
2024/03/12 11:11:40;;;;;;;27.40;19.90;;;;;;;1.81;74.23;100400.44;105997;1254;73135;-72
2024/03/12 11:14:07;;;;;;;28.10;19.50;;;;;;;1.79;74.54;100400.53;106008;1254;70776;-71
2024/03/12 11:16:36;;;;;;;30.50;20.00;;;;;;;1.79;74.86;100397.06;106018;1255;71504;-72
2024/03/12 11:19:22;;;;;;;27.30;19.20;;;;;;;1.84;74.83;100398.98;106132;1260;62441;-71
2024/03/12 11:21:51;;;;;;;31.40;20.30;;;;;;;1.92;74.79;100391.83;106260;1253;60861;-72
2024/03/12 11:24:30;;;;;;;30.30;21.20;;;;;;;1.92;75.24;100395.18;106207;1253;74043;-69
2024/03/12 11:27:03;;;;;;;28.80;18.80;;;;;;;1.85;75.70;100392.30;106099;1255;72571;-72
2024/03/12 11:30:03;;;;;;;24.80;19.00;;;;;;;1.75;75.94;100400.45;106172;1254;74897;-73
2024/03/12 11:32:44;;;;;;;29.70;19.60;;;;;;;1.60;76.49;100398.56;106177;1254;61346;-71
2024/03/12 11:35:18;;;;;;;27.20;16.90;;;;;;;1.56;77.22;100397.59;106104;1254;60956;-70